sensor_id;sensor_type;location;lat;lon;timestamp;pressure;altitude;pressure_sealevel;temperature;humidity
68329;BME280;55182;56.864;60.554;2022-09-12T00:01:10;98793.06;;;5.58;100.00
68329;BME280;55182;56.864;60.554;2022-09-12T00:03:36;98792.19;;;5.57;100.00
68329;BME280;55182;56.864;60.554;2022-09-12T00:06:06;98796.53;;;5.57;100.00
68329;BME280;55182;56.864;60.554;2022-09-12T00:08:31;98800.84;;;5.56;100.00
68329;BME280;55182;56.864;60.554;2022-09-12T00:10:57;98793.84;;;5.55;100.00
68329;BME280;55182;56.864;60.554;2022-09-12T00:13:22;98794.75;;;5.56;100.00
68329;BME280;55182;56.864;60.554;2022-09-12T00:15:48;98805.16;;;5.56;100.00
68329;BME280;55182;56.864;60.554;2022-09-12T00:18:14;98797.28;;;5.54;100.00
68329;BME280;55182;56.864;60.554;2022-09-12T00:20:41;98808.69;;;5.58;100.00
68329;BME280;55182;56.864;60.554;2022-09-12T00:23:06;98801.72;;;5.57;100.00
68329;BME280;55182;56.864;60.554;2022-09-12T00:25:32;98804.34;;;5.58;100.00
68329;BME280;55182;56.864;60.554;2022-09-12T00:27:57;98805.25;;;5.59;100.00
68329;BME280;55182;56.864;60.554;2022-09-12T00:30:23;98809.59;;;5.60;100.00
68329;BME280;55182;56.864;60.554;2022-09-12T00:32:48;98812.19;;;5.60;100.00
68329;BME280;55182;56.864;60.554;2022-09-12T00:35:13;98815.69;;;5.61;100.00
68329;BME280;55182;56.864;60.554;2022-09-12T00:37:39;98819.16;;;5.61;100.00
68329;BME280;55182;56.864;60.554;2022-09-12T00:40:04;98815.69;;;5.61;100.00
68329;BME280;55182;56.864;60.554;2022-09-12T00:42:30;98823.50;;;5.61;100.00
68329;BME280;55182;56.864;60.554;2022-09-12T00:44:55;98823.50;;;5.61;100.00
68329;BME280;55182;56.864;60.554;2022-09-12T00:47:23;98823.44;;;5.59;100.00
68329;BME280;55182;56.864;60.554;2022-09-12T00:52:36;98822.56;;;5.58;100.00
68329;BME280;55182;56.864;60.554;2022-09-12T00:57:29;98828.59;;;5.57;100.00
68329;BME280;55182;56.864;60.554;2022-09-12T01:00:05;98834.72;;;5.59;100.00
68329;BME280;55182;56.864;60.554;2022-09-12T01:02:31;98826.06;;;5.59;100.00
68329;BME280;55182;56.864;60.554;2022-09-12T01:04:57;98831.25;;;5.59;100.00
68329;BME280;55182;56.864;60.554;2022-09-12T01:07:22;98835.56;;;5.58;100.00
68329;BME280;55182;56.864;60.554;2022-09-12T01:09:48;98834.69;;;5.58;100.00
68329;BME280;55182;56.864;60.554;2022-09-12T01:12:13;98835.56;;;5.58;100.00
68329;BME280;55182;56.864;60.554;2022-09-12T01:14:39;98838.22;;;5.60;100.00
68329;BME280;55182;56.864;60.554;2022-09-12T01:17:04;98843.53;;;5.63;100.00
68329;BME280;55182;56.864;60.554;2022-09-12T01:28:14;98847.34;;;5.74;100.00
68329;BME280;55182;56.864;60.554;2022-09-12T01:30:54;98836.09;;;5.75;100.00
68329;BME280;55182;56.864;60.554;2022-09-12T01:40:55;98847.53;;;5.80;100.00
68329;BME280;55182;56.864;60.554;2022-09-12T01:48:35;98852.75;;;5.80;100.00
68329;BME280;55182;56.864;60.554;2022-09-12T01:53:29;98857.25;;;5.86;100.00
68329;BME280;55182;56.864;60.554;2022-09-12T01:55:59;98857.31;;;5.88;100.00
68329;BME280;55182;56.864;60.554;2022-09-12T01:58:27;98870.41;;;5.91;100.00
68329;BME280;55182;56.864;60.554;2022-09-12T02:01:04;98866.13;;;5.91;100.00
68329;BME280;55182;56.864;60.554;2022-09-12T02:03:37;98872.16;;;5.90;100.00
68329;BME280;55182;56.864;60.554;2022-09-12T02:06:05;98881.75;;;5.91;100.00
68329;BME280;55182;56.864;60.554;2022-09-12T02:08:34;98885.22;;;5.92;100.00
68329;BME280;55182;56.864;60.554;2022-09-12T02:11:07;98875.75;;;5.94;100.00
68329;BME280;55182;56.864;60.554;2022-09-12T02:16:18;98893.13;;;5.95;100.00
68329;BME280;55182;56.864;60.554;2022-09-12T02:18:49;98885.31;;;5.95;100.00
68329;BME280;55182;56.864;60.554;2022-09-12T02:21:16;98891.34;;;5.94;100.00
68329;BME280;55182;56.864;60.554;2022-09-12T02:23:43;98891.34;;;5.94;100.00
68329;BME280;55182;56.864;60.554;2022-09-12T02:26:18;98900.88;;;5.93;100.00
68329;BME280;55182;56.864;60.554;2022-09-12T02:28:46;98893.03;;;5.92;100.00
68329;BME280;55182;56.864;60.554;2022-09-12T02:38:46;98898.41;;;5.96;100.00
68329;BME280;55182;56.864;60.554;2022-09-12T02:41:13;98902.72;;;5.96;100.00
68329;BME280;55182;56.864;60.554;2022-09-12T02:43:39;98905.31;;;5.96;100.00
68329;BME280;55182;56.864;60.554;2022-09-12T02:46:05;98902.72;;;5.96;100.00
68329;BME280;55182;56.864;60.554;2022-09-12T02:48:33;98906.19;;;5.96;100.00
68329;BME280;55182;56.864;60.554;2022-09-12T02:51:00;98908.03;;;6.00;100.00
68329;BME280;55182;56.864;60.554;2022-09-12T02:53:26;98902.06;;;6.03;100.00
68329;BME280;55182;56.864;60.554;2022-09-12T02:55:51;98905.59;;;6.05;100.00
68329;BME280;55182;56.864;60.554;2022-09-12T02:58:18;98904.84;;;6.09;100.00
68329;BME280;55182;56.864;60.554;2022-09-12T03:00:47;98908.41;;;6.13;100.00
68329;BME280;55182;56.864;60.554;2022-09-12T03:08:20;98905.25;;;6.23;100.00
68329;BME280;55182;56.864;60.554;2022-09-12T03:10:57;98908.00;;;6.27;100.00
68329;BME280;55182;56.864;60.554;2022-09-12T03:23:30;98923.31;;;6.45;100.00
68329;BME280;55182;56.864;60.554;2022-09-12T03:26:02;98918.22;;;6.48;100.00
68329;BME280;55182;56.864;60.554;2022-09-12T03:28:30;98923.50;;;6.51;100.00
68329;BME280;55182;56.864;60.554;2022-09-12T03:30:57;98923.59;;;6.54;100.00
68329;BME280;55182;56.864;60.554;2022-09-12T03:33:23;98921.94;;;6.58;100.00
68329;BME280;55182;56.864;60.554;2022-09-12T03:35:49;98918.63;;;6.63;100.00
68329;BME280;55182;56.864;60.554;2022-09-12T03:38:15;98919.72;;;6.70;100.00
68329;BME280;55182;56.864;60.554;2022-09-12T03:40:40;98919.06;;;6.77;100.00
68329;BME280;55182;56.864;60.554;2022-09-12T03:43:06;98927.03;;;6.83;100.00
68329;BME280;55182;56.864;60.554;2022-09-12T03:45:32;98923.69;;;6.87;100.00
68329;BME280;55182;56.864;60.554;2022-09-12T03:47:58;98924.56;;;6.88;100.00
68329;BME280;55182;56.864;60.554;2022-09-12T03:50:23;98921.94;;;6.86;100.00
68329;BME280;55182;56.864;60.554;2022-09-12T03:52:49;98923.69;;;6.87;100.00
68329;BME280;55182;56.864;60.554;2022-09-12T03:55:14;98932.53;;;6.93;100.00
68329;BME280;55182;56.864;60.554;2022-09-12T03:57:40;98930.03;;;6.97;100.00
68329;BME280;55182;56.864;60.554;2022-09-12T04:00:05;98928.44;;;7.02;100.00
68329;BME280;55182;56.864;60.554;2022-09-12T04:02:37;98927.69;;;7.06;100.00
68329;BME280;55182;56.864;60.554;2022-09-12T04:05:03;98934.78;;;7.12;100.00
68329;BME280;55182;56.864;60.554;2022-09-12T04:07:28;98934.97;;;7.18;100.00
68329;BME280;55182;56.864;60.554;2022-09-12T04:09:54;98934.28;;;7.25;100.00
68329;BME280;55182;56.864;60.554;2022-09-12T04:12:19;98939.78;;;7.36;100.00
68329;BME280;55182;56.864;60.554;2022-09-12T04:14:45;98941.53;;;7.37;100.00
68329;BME280;55182;56.864;60.554;2022-09-12T04:17:10;98940.75;;;7.39;100.00
68329;BME280;55182;56.864;60.554;2022-09-12T04:19:36;98947.91;;;7.47;100.00
68329;BME280;55182;56.864;60.554;2022-09-12T04:22:01;98954.16;;;7.53;100.00
68329;BME280;55182;56.864;60.554;2022-09-12T04:24:27;98955.13;;;7.57;100.00
68329;BME280;55182;56.864;60.554;2022-09-12T04:26:52;98954.25;;;7.56;100.00
68329;BME280;55182;56.864;60.554;2022-09-12T04:29:18;98957.81;;;7.60;100.00
68329;BME280;55182;56.864;60.554;2022-09-12T04:31:43;98949.38;;;7.70;100.00
68329;BME280;55182;56.864;60.554;2022-09-12T04:34:09;98956.63;;;7.82;100.00
68329;BME280;55182;56.864;60.554;2022-09-12T04:36:35;98962.09;;;7.91;100.00
68329;BME280;55182;56.864;60.554;2022-09-12T04:39:01;98966.72;;;8.03;100.00
68329;BME280;55182;56.864;60.554;2022-09-12T04:41:27;98961.66;;;8.09;100.00
68329;BME280;55182;56.864;60.554;2022-09-12T04:43:54;98967.75;;;8.09;100.00
68329;BME280;55182;56.864;60.554;2022-09-12T04:46:20;98965.03;;;8.05;100.00
68329;BME280;55182;56.864;60.554;2022-09-12T04:48:46;98968.44;;;8.01;100.00
68329;BME280;55182;56.864;60.554;2022-09-12T04:51:12;98981.41;;;7.97;100.00
68329;BME280;55182;56.864;60.554;2022-09-12T04:53:38;98976.03;;;7.91;100.00
68329;BME280;55182;56.864;60.554;2022-09-12T04:56:04;98975.13;;;7.89;100.00
68329;BME280;55182;56.864;60.554;2022-09-12T04:58:31;98971.78;;;7.95;100.00
68329;BME280;55182;56.864;60.554;2022-09-12T05:01:02;98982.31;;;8.00;100.00
68329;BME280;55182;56.864;60.554;2022-09-12T05:03:28;98982.50;;;8.06;100.00
68329;BME280;55182;56.864;60.554;2022-09-12T05:05:53;98968.69;;;8.11;100.00
68329;BME280;55182;56.864;60.554;2022-09-12T05:08:18;98983.56;;;8.15;100.00
68329;BME280;55182;56.864;60.554;2022-09-12T05:10:44;98976.72;;;8.20;100.00
68329;BME280;55182;56.864;60.554;2022-09-12T05:13:09;98979.44;;;8.23;100.00
68329;BME280;55182;56.864;60.554;2022-09-12T05:15:35;98974.25;;;8.25;100.00
68329;BME280;55182;56.864;60.554;2022-09-12T05:18:00;98979.69;;;8.34;100.00
68329;BME280;55182;56.864;60.554;2022-09-12T05:20:25;98979.06;;;8.44;100.00
68329;BME280;55182;56.864;60.554;2022-09-12T05:22:51;98979.19;;;8.49;100.00
68329;BME280;55182;56.864;60.554;2022-09-12T05:25:16;98982.78;;;8.54;100.00
68329;BME280;55182;56.864;60.554;2022-09-12T05:27:42;98983.66;;;8.55;100.00
68329;BME280;55182;56.864;60.554;2022-09-12T05:30:07;98975.09;;;8.62;100.00
68329;BME280;55182;56.864;60.554;2022-09-12T05:32:33;98979.56;;;8.66;100.00
68329;BME280;55182;56.864;60.554;2022-09-12T05:34:58;98980.63;;;8.74;100.00
68329;BME280;55182;56.864;60.554;2022-09-12T05:37:24;98981.59;;;8.79;100.00
68329;BME280;55182;56.864;60.554;2022-09-12T05:39:49;98980.69;;;8.77;100.00
68329;BME280;55182;56.864;60.554;2022-09-12T05:42:14;98986.00;;;8.80;100.00
68329;BME280;55182;56.864;60.554;2022-09-12T05:44:40;98981.00;;;8.91;100.00
68329;BME280;55182;56.864;60.554;2022-09-12T05:47:05;98982.09;;;9.02;100.00
68329;BME280;55182;56.864;60.554;2022-09-12T05:49:30;98983.25;;;9.16;100.00
68329;BME280;55182;56.864;60.554;2022-09-12T05:51:56;98986.09;;;9.27;100.00
68329;BME280;55182;56.864;60.554;2022-09-12T05:54:21;98986.19;;;9.33;98.33
68329;BME280;55182;56.864;60.554;2022-09-12T05:56:47;98987.19;;;9.38;98.35
68329;BME280;55182;56.864;60.554;2022-09-12T05:59:13;98989.06;;;9.45;97.64
68329;BME280;55182;56.864;60.554;2022-09-12T06:01:39;98987.53;;;9.56;98.21
68329;BME280;55182;56.864;60.554;2022-09-12T06:04:05;98988.50;;;9.63;98.01
68329;BME280;55182;56.864;60.554;2022-09-12T06:06:31;98985.97;;;9.66;98.05
68329;BME280;55182;56.864;60.554;2022-09-12T06:08:59;98990.41;;;9.70;97.85
68329;BME280;55182;56.864;60.554;2022-09-12T06:11:26;98983.50;;;9.75;97.89
68329;BME280;55182;56.864;60.554;2022-09-12T06:13:51;98980.16;;;9.82;97.98
68329;BME280;55182;56.864;60.554;2022-09-12T06:16:18;98983.06;;;9.99;97.08
68329;BME280;55182;56.864;60.554;2022-09-12T06:19:00;98986.75;;;10.11;95.91
68329;BME280;55182;56.864;60.554;2022-09-12T06:21:26;98982.50;;;10.19;96.12
68329;BME280;55182;56.864;60.554;2022-09-12T06:23:53;98982.69;;;10.29;95.81
68329;BME280;55182;56.864;60.554;2022-09-12T06:26:19;98989.88;;;10.41;93.91
68329;BME280;55182;56.864;60.554;2022-09-12T06:28:45;98979.59;;;10.55;92.26
68329;BME280;55182;56.864;60.554;2022-09-12T06:31:11;98991.78;;;10.50;91.19
68329;BME280;55182;56.864;60.554;2022-09-12T06:33:38;98990.81;;;10.46;91.50
68329;BME280;55182;56.864;60.554;2022-09-12T06:36:04;98984.56;;;10.37;90.66
68329;BME280;55182;56.864;60.554;2022-09-12T06:38:31;98990.75;;;10.40;93.07
68329;BME280;55182;56.864;60.554;2022-09-12T06:40:56;98982.97;;;10.48;92.58
68329;BME280;55182;56.864;60.554;2022-09-12T06:43:21;98981.41;;;10.60;93.59
68329;BME280;55182;56.864;60.554;2022-09-12T06:45:48;98984.25;;;10.76;92.22
68329;BME280;55182;56.864;60.554;2022-09-12T06:48:13;98985.31;;;10.88;92.15
68329;BME280;55182;56.864;60.554;2022-09-12T06:50:38;98984.50;;;10.94;91.00
68329;BME280;55182;56.864;60.554;2022-09-12T06:53:04;98981.72;;;10.82;91.17
68329;BME280;55182;56.864;60.554;2022-09-12T06:55:29;98983.44;;;10.80;94.08
68329;BME280;55182;56.864;60.554;2022-09-12T06:57:55;98987.91;;;10.87;91.91
68329;BME280;55182;56.864;60.554;2022-09-12T07:00:20;98982.75;;;10.93;90.40
68329;BME280;55182;56.864;60.554;2022-09-12T07:02:45;98978.50;;;11.01;91.59
68329;BME280;55182;56.864;60.554;2022-09-12T07:05:11;98976.91;;;11.14;91.58
68329;BME280;55182;56.864;60.554;2022-09-12T07:07:36;98983.16;;;11.27;92.20
68329;BME280;55182;56.864;60.554;2022-09-12T07:10:02;98977.19;;;11.38;88.77
68329;BME280;55182;56.864;60.554;2022-09-12T07:12:28;98972.06;;;11.51;88.21
68329;BME280;55182;56.864;60.554;2022-09-12T07:14:53;98982.63;;;11.57;89.21
68329;BME280;55182;56.864;60.554;2022-09-12T07:17:18;98978.31;;;11.62;86.18
68329;BME280;55182;56.864;60.554;2022-09-12T07:19:44;98970.47;;;11.65;85.44
68329;BME280;55182;56.864;60.554;2022-09-12T07:22:09;98976.56;;;11.62;85.83
68329;BME280;55182;56.864;60.554;2022-09-12T07:24:35;98972.28;;;11.71;84.84
68329;BME280;55182;56.864;60.554;2022-09-12T07:27:00;98971.41;;;11.68;85.00
68329;BME280;55182;56.864;60.554;2022-09-12T07:29:25;98971.41;;;11.68;84.71
68329;BME280;55182;56.864;60.554;2022-09-12T07:31:51;98975.75;;;11.68;82.95
68329;BME280;55182;56.864;60.554;2022-09-12T07:34:16;98985.38;;;11.67;83.00
68329;BME280;55182;56.864;60.554;2022-09-12T07:36:42;98976.66;;;11.72;83.73
68329;BME280;55182;56.864;60.554;2022-09-12T07:39:07;98987.22;;;11.75;83.19
68329;BME280;55182;56.864;60.554;2022-09-12T07:41:32;98973.31;;;11.82;84.54
68329;BME280;55182;56.864;60.554;2022-09-12T07:43:59;98979.53;;;11.91;83.94
68329;BME280;55182;56.864;60.554;2022-09-12T07:46:25;98973.44;;;11.97;82.38
68329;BME280;55182;56.864;60.554;2022-09-12T07:48:54;98974.34;;;11.99;82.53
68329;BME280;55182;56.864;60.554;2022-09-12T07:51:20;98976.91;;;11.94;83.25
68329;BME280;55182;56.864;60.554;2022-09-12T07:53:46;98981.16;;;11.80;82.44
68329;BME280;55182;56.864;60.554;2022-09-12T07:56:11;98987.16;;;11.72;80.82
68329;BME280;55182;56.864;60.554;2022-09-12T07:58:38;98992.31;;;11.59;80.94
68329;BME280;55182;56.864;60.554;2022-09-12T08:01:04;98994.75;;;11.46;80.70
68329;BME280;55182;56.864;60.554;2022-09-12T08:03:30;98989.50;;;11.44;80.80
68329;BME280;55182;56.864;60.554;2022-09-12T08:06:01;98991.13;;;11.34;82.78
68329;BME280;55182;56.864;60.554;2022-09-12T08:08:26;98992.09;;;11.41;83.29
68329;BME280;55182;56.864;60.554;2022-09-12T08:10:55;98992.13;;;11.44;80.40
68329;BME280;55182;56.864;60.554;2022-09-12T08:13:21;98994.69;;;11.38;80.46
68329;BME280;55182;56.864;60.554;2022-09-12T08:15:46;98991.09;;;11.30;81.37
68329;BME280;55182;56.864;60.554;2022-09-12T08:18:11;98985.00;;;11.32;80.80
68329;BME280;55182;56.864;60.554;2022-09-12T08:20:37;98985.06;;;11.40;81.90
68329;BME280;55182;56.864;60.554;2022-09-12T08:23:02;98999.31;;;11.60;82.49
68329;BME280;55182;56.864;60.554;2022-09-12T08:25:28;98985.47;;;11.78;80.26
68329;BME280;55182;56.864;60.554;2022-09-12T08:27:53;98985.66;;;11.92;77.80
68329;BME280;55182;56.864;60.554;2022-09-12T08:30:18;98983.88;;;11.91;77.12
68329;BME280;55182;56.864;60.554;2022-09-12T08:32:44;98994.44;;;11.94;77.90
68329;BME280;55182;56.864;60.554;2022-09-12T08:35:09;98983.16;;;12.07;79.64
68329;BME280;55182;56.864;60.554;2022-09-12T08:37:35;98979.75;;;12.16;77.24
68329;BME280;55182;56.864;60.554;2022-09-12T08:40:00;98992.06;;;12.22;77.51
68329;BME280;55182;56.864;60.554;2022-09-12T08:45:12;98995.53;;;12.19;75.76
68329;BME280;55182;56.864;60.554;2022-09-12T08:47:42;98984.06;;;12.11;74.39
68329;BME280;55182;56.864;60.554;2022-09-12T08:52:37;98992.81;;;12.08;74.15
68329;BME280;55182;56.864;60.554;2022-09-12T08:55:04;98984.00;;;12.03;73.83
68329;BME280;55182;56.864;60.554;2022-09-12T08:57:29;98990.16;;;12.07;73.76
68329;BME280;55182;56.864;60.554;2022-09-12T08:59:55;98983.25;;;12.15;73.38
68329;BME280;55182;56.864;60.554;2022-09-12T09:02:40;98992.09;;;12.28;75.67
68329;BME280;55182;56.864;60.554;2022-09-12T09:10:33;98991.56;;;12.78;72.35
68329;BME280;55182;56.864;60.554;2022-09-12T09:13:13;98986.31;;;12.78;71.65
68329;BME280;55182;56.864;60.554;2022-09-12T09:15:57;98983.63;;;12.70;72.06
68329;BME280;55182;56.864;60.554;2022-09-12T09:18:27;98981.81;;;12.63;73.44
68329;BME280;55182;56.864;60.554;2022-09-12T09:20:59;98983.56;;;12.59;72.54
68329;BME280;55182;56.864;60.554;2022-09-12T09:23:33;98977.31;;;12.45;73.66
68329;BME280;55182;56.864;60.554;2022-09-12T09:26:14;98984.22;;;12.28;74.31
68329;BME280;55182;56.864;60.554;2022-09-12T09:28:44;98979.69;;;12.08;75.41
68329;BME280;55182;56.864;60.554;2022-09-12T09:31:14;98980.47;;;12.00;76.39
68329;BME280;55182;56.864;60.554;2022-09-12T09:33:40;98982.19;;;11.96;76.15
68329;BME280;55182;56.864;60.554;2022-09-12T09:38:47;98995.38;;;12.02;74.37
68329;BME280;55182;56.864;60.554;2022-09-12T09:41:26;98987.63;;;12.14;73.98
68329;BME280;55182;56.864;60.554;2022-09-12T09:43:55;98990.59;;;12.63;73.79
68329;BME280;55182;56.864;60.554;2022-09-12T09:46:20;98988.16;;;12.94;71.43
68329;BME280;55182;56.864;60.554;2022-09-12T09:48:47;98981.31;;;13.33;70.40
68329;BME280;55182;56.864;60.554;2022-09-12T09:51:14;98984.06;;;13.71;70.02
68329;BME280;55182;56.864;60.554;2022-09-12T09:56:09;98985.88;;;13.95;64.42
68329;BME280;55182;56.864;60.554;2022-09-12T09:58:35;98988.50;;;13.86;66.93
68329;BME280;55182;56.864;60.554;2022-09-12T10:01:02;98978.81;;;13.69;65.26
68329;BME280;55182;56.864;60.554;2022-09-12T10:03:32;98991.03;;;13.43;65.50
68329;BME280;55182;56.864;60.554;2022-09-12T10:05:58;98990.97;;;13.26;64.70
68329;BME280;55182;56.864;60.554;2022-09-12T10:08:29;98987.44;;;13.22;63.68
68329;BME280;55182;56.864;60.554;2022-09-12T10:13:33;98994.34;;;13.00;62.64
68329;BME280;55182;56.864;60.554;2022-09-12T10:15:59;98993.41;;;12.88;64.38
68329;BME280;55182;56.864;60.554;2022-09-12T10:18:37;98995.13;;;12.83;64.62
68329;BME280;55182;56.864;60.554;2022-09-12T10:21:11;98995.09;;;12.80;66.48
68329;BME280;55182;56.864;60.554;2022-09-12T10:23:38;98992.47;;;12.78;65.13
68329;BME280;55182;56.864;60.554;2022-09-12T10:26:07;99002.06;;;12.74;64.42
68329;BME280;55182;56.864;60.554;2022-09-12T10:30:59;99000.25;;;12.64;65.01
68329;BME280;55182;56.864;60.554;2022-09-12T10:33:24;98992.34;;;12.60;65.16
68329;BME280;55182;56.864;60.554;2022-09-12T10:35:51;98994.94;;;12.55;64.03
68329;BME280;55182;56.864;60.554;2022-09-12T10:38:20;98997.56;;;12.55;65.25
68329;BME280;55182;56.864;60.554;2022-09-12T10:40:53;98995.84;;;12.60;64.79
68329;BME280;55182;56.864;60.554;2022-09-12T10:45:57;98995.06;;;12.72;67.35
68329;BME280;55182;56.864;60.554;2022-09-12T10:48:28;98997.72;;;12.78;64.57
68329;BME280;55182;56.864;60.554;2022-09-12T10:50:53;98992.44;;;12.77;66.04
68329;BME280;55182;56.864;60.554;2022-09-12T10:53:26;98999.50;;;12.82;66.66
68329;BME280;55182;56.864;60.554;2022-09-12T10:58:41;98997.84;;;13.01;65.75
68329;BME280;55182;56.864;60.554;2022-09-12T11:04:00;98989.97;;;13.07;64.53
68329;BME280;55182;56.864;60.554;2022-09-12T11:06:33;98990.84;;;13.08;64.20
68329;BME280;55182;56.864;60.554;2022-09-12T11:09:02;98991.75;;;13.11;65.61
68329;BME280;55182;56.864;60.554;2022-09-12T11:21:56;99007.44;;;12.88;63.03
68329;BME280;55182;56.864;60.554;2022-09-12T11:34:13;99005.56;;;12.75;63.60
68329;BME280;55182;56.864;60.554;2022-09-12T11:41:38;98995.94;;;12.72;63.69
68329;BME280;55182;56.864;60.554;2022-09-12T11:56:43;99006.59;;;12.98;64.72
68329;BME280;55182;56.864;60.554;2022-09-12T11:59:14;99011.91;;;13.05;65.86
68329;BME280;55182;56.864;60.554;2022-09-12T12:01:42;99011.03;;;13.07;65.30
68329;BME280;55182;56.864;60.554;2022-09-12T12:04:12;99009.25;;;13.02;65.51
68329;BME280;55182;56.864;60.554;2022-09-12T12:06:59;99011.78;;;12.86;66.12
68329;BME280;55182;56.864;60.554;2022-09-12T12:09:26;99015.16;;;12.59;68.14
68329;BME280;55182;56.864;60.554;2022-09-12T12:11:52;99006.16;;;12.34;69.20
68329;BME280;55182;56.864;60.554;2022-09-12T12:14:24;98998.03;;;12.07;71.98
68329;BME280;55182;56.864;60.554;2022-09-12T12:16:53;99002.22;;;11.83;73.03
68329;BME280;55182;56.864;60.554;2022-09-12T12:21:47;99029.00;;;11.55;74.82
68329;BME280;55182;56.864;60.554;2022-09-12T12:24:15;99020.94;;;11.36;74.69
68329;BME280;55182;56.864;60.554;2022-09-12T12:26:43;99027.66;;;11.16;76.55
68329;BME280;55182;56.864;60.554;2022-09-12T12:29:09;99025.75;;;11.03;76.77
68329;BME280;55182;56.864;60.554;2022-09-12T12:34:21;99029.69;;;10.73;76.71
68329;BME280;55182;56.864;60.554;2022-09-12T12:36:46;99042.69;;;10.66;77.49
68329;BME280;55182;56.864;60.554;2022-09-12T12:41:58;99051.81;;;10.36;80.09
68329;BME280;55182;56.864;60.554;2022-09-12T12:47:11;99039.69;;;9.93;80.46
68329;BME280;55182;56.864;60.554;2022-09-12T12:49:38;99043.81;;;9.80;82.31
68329;BME280;55182;56.864;60.554;2022-09-12T12:52:04;99038.34;;;9.68;83.58
68329;BME280;55182;56.864;60.554;2022-09-12T12:57:02;99045.00;;;9.50;83.88
68329;BME280;55182;56.864;60.554;2022-09-12T12:59:29;99050.63;;;9.28;84.59
68329;BME280;55182;56.864;60.554;2022-09-12T13:01:54;99044.75;;;8.97;85.38
68329;BME280;55182;56.864;60.554;2022-09-12T13:04:25;99045.19;;;8.78;87.22
68329;BME280;55182;56.864;60.554;2022-09-12T13:06:59;99037.91;;;8.65;89.54
68329;BME280;55182;56.864;60.554;2022-09-12T13:11:55;99050.09;;;8.63;88.73
68329;BME280;55182;56.864;60.554;2022-09-12T13:14:36;99047.66;;;8.72;88.67
68329;BME280;55182;56.864;60.554;2022-09-12T13:19:49;99050.03;;;8.99;84.06
68329;BME280;55182;56.864;60.554;2022-09-12T13:22:15;99054.59;;;9.09;84.62
68329;BME280;55182;56.864;60.554;2022-09-12T13:24:42;99042.53;;;9.16;84.10
68329;BME280;55182;56.864;60.554;2022-09-12T13:27:18;99049.75;;;9.27;85.57
68329;BME280;55182;56.864;60.554;2022-09-12T13:29:44;99053.38;;;9.34;90.04
68329;BME280;55182;56.864;60.554;2022-09-12T13:32:09;99048.22;;;9.37;82.82
68329;BME280;55182;56.864;60.554;2022-09-12T13:40:13;99049.44;;;9.54;80.25
68329;BME280;55182;56.864;60.554;2022-09-12T13:42:41;99050.47;;;9.63;81.15
68329;BME280;55182;56.864;60.554;2022-09-12T13:45:17;99055.81;;;9.69;81.28
68329;BME280;55182;56.864;60.554;2022-09-12T13:47:44;99048.00;;;9.70;80.93
68329;BME280;55182;56.864;60.554;2022-09-12T13:50:13;99059.41;;;9.74;81.04
68329;BME280;55182;56.864;60.554;2022-09-12T13:52:41;99055.94;;;9.75;80.89
68329;BME280;55182;56.864;60.554;2022-09-12T13:55:24;99059.47;;;9.77;80.87
68329;BME280;55182;56.864;60.554;2022-09-12T13:58:00;99057.72;;;9.76;80.85
68329;BME280;55182;56.864;60.554;2022-09-12T14:00:26;99064.72;;;9.77;81.11
68329;BME280;55182;56.864;60.554;2022-09-12T14:02:52;99057.72;;;9.76;81.42
68329;BME280;55182;56.864;60.554;2022-09-12T14:05:19;99058.53;;;9.73;82.08
68329;BME280;55182;56.864;60.554;2022-09-12T14:07:53;99059.38;;;9.71;82.09
68329;BME280;55182;56.864;60.554;2022-09-12T14:10:32;99064.56;;;9.69;82.24
68329;BME280;55182;56.864;60.554;2022-09-12T14:12:58;99063.66;;;9.69;82.02
68329;BME280;55182;56.864;60.554;2022-09-12T14:15:29;99065.41;;;9.68;82.20
68329;BME280;55182;56.864;60.554;2022-09-12T14:17:55;99062.78;;;9.67;86.70
68329;BME280;55182;56.864;60.554;2022-09-12T14:20:21;99065.28;;;9.61;83.48
68329;BME280;55182;56.864;60.554;2022-09-12T14:22:50;99064.38;;;9.60;83.84
68329;BME280;55182;56.864;60.554;2022-09-12T14:25:18;99066.13;;;9.60;82.71
68329;BME280;55182;56.864;60.554;2022-09-12T14:27:53;99064.34;;;9.59;86.44
68329;BME280;55182;56.864;60.554;2022-09-12T14:30:21;99075.66;;;9.56;84.05
68329;BME280;55182;56.864;60.554;2022-09-12T14:35:31;99083.47;;;9.54;83.75
68329;BME280;55182;56.864;60.554;2022-09-12T14:38:03;99078.22;;;9.53;83.97
68329;BME280;55182;56.864;60.554;2022-09-12T14:40:30;99080.75;;;9.50;88.13
68329;BME280;55182;56.864;60.554;2022-09-12T14:42:56;99080.66;;;9.45;88.81
68329;BME280;55182;56.864;60.554;2022-09-12T14:45:24;99083.16;;;9.41;90.51
68329;BME280;55182;56.864;60.554;2022-09-12T14:47:51;99082.19;;;9.36;91.58
68329;BME280;55182;56.864;60.554;2022-09-12T14:50:20;99086.41;;;9.29;92.43
68329;BME280;55182;56.864;60.554;2022-09-12T14:52:55;99092.38;;;9.22;93.45
68329;BME280;55182;56.864;60.554;2022-09-12T14:55:30;99102.72;;;9.17;94.26
68329;BME280;55182;56.864;60.554;2022-09-12T14:58:06;99105.19;;;9.10;95.10
68329;BME280;55182;56.864;60.554;2022-09-12T15:00:35;99103.28;;;9.02;93.21
68329;BME280;55182;56.864;60.554;2022-09-12T15:03:14;99106.69;;;8.98;88.37
68329;BME280;55182;56.864;60.554;2022-09-12T15:05:47;99110.06;;;8.94;90.31
68329;BME280;55182;56.864;60.554;2022-09-12T15:08:13;99107.34;;;8.90;90.59
68329;BME280;55182;56.864;60.554;2022-09-12T15:10:39;99111.78;;;8.92;90.91
68329;BME280;55182;56.864;60.554;2022-09-12T15:15:30;99127.38;;;8.89;91.72
68329;BME280;55182;56.864;60.554;2022-09-12T15:17:55;99118.50;;;8.83;92.62
68329;BME280;55182;56.864;60.554;2022-09-12T15:20:21;99119.13;;;8.72;93.99
68329;BME280;55182;56.864;60.554;2022-09-12T15:22:46;99124.09;;;8.62;94.63
68329;BME280;55182;56.864;60.554;2022-09-12T15:25:12;99127.38;;;8.53;94.67